Time;durP1;ratioP1;P1;durP2;ratioP2;P2;SDS_P1;SDS_P2;PMS_P1;PMS_P2;Temp;Humidity;BMP_temperature;BMP_pressure;BME280_temperature;BME280_humidity;BME280_pressure;Samples;Min_cycle;Max_cycle;Signal;HPM_P1;HPM_P2
2022/01/19 00:01:13;;;;;;;8.40;7.60;;;;;;;3.40;80.86;100272.97;5047317;27;102656;-64
2022/01/19 00:03:42;;;;;;;10.23;7.47;;;;;;;3.37;80.73;100272.16;5042729;27;103679;-64
2022/01/19 00:06:11;;;;;;;6.80;6.10;;;;;;;3.43;80.83;100265.06;5050157;27;104263;-64
2022/01/19 00:08:39;;;;;;;8.03;6.80;;;;;;;3.49;80.53;100256.25;5041817;27;104118;-64
2022/01/19 00:11:10;;;;;;;7.67;6.83;;;;;;;3.48;80.67;100244.09;5040364;27;102703;-64
2022/01/19 00:13:38;;;;;;;10.87;7.93;;;;;;;3.47;79.94;100234.53;5053876;27;102803;-64
2022/01/19 00:16:06;;;;;;;6.77;5.80;;;;;;;3.44;81.19;100226.75;5038814;27;104184;-64
2022/01/19 00:18:36;;;;;;;7.13;6.13;;;;;;;3.49;81.19;100217.06;5059478;27;103290;-65
2022/01/19 00:21:06;;;;;;;7.67;6.80;;;;;;;3.43;80.67;100217.16;5055128;27;102967;-64
2022/01/19 00:23:37;;;;;;;9.00;6.40;;;;;;;3.44;80.78;100222.38;5055905;27;103782;-64
2022/01/19 00:26:05;;;;;;;7.87;5.67;;;;;;;3.44;80.92;100231.97;5057264;27;103547;-67
2022/01/19 00:28:33;;;;;;;12.20;7.33;;;;;;;3.44;81.00;100226.75;5045086;27;103198;-67
2022/01/19 00:31:01;;;;;;;7.93;7.13;;;;;;;3.19;81.17;100238.56;5034097;27;102700;-67
2022/01/19 00:33:30;;;;;;;8.70;7.80;;;;;;;3.10;82.04;100246.53;5035652;27;104208;-64
2022/01/19 00:36:01;;;;;;;12.73;6.60;;;;;;;3.08;82.03;100253.56;5042460;27;104330;-67
2022/01/19 00:38:29;;;;;;;7.33;5.67;;;;;;;3.16;82.46;100272.56;5052651;27;103215;-67
2022/01/19 00:40:57;;;;;;;7.60;6.80;;;;;;;3.20;82.26;100267.25;5033372;27;102677;-64
2022/01/19 00:43:26;;;;;;;8.37;7.03;;;;;;;3.01;81.17;100257.16;5037080;27;102677;-64
2022/01/19 00:45:54;;;;;;;6.07;5.13;;;;;;;2.88;82.21;100262.59;5028859;27;104166;-67
2022/01/19 00:48:27;;;;;;;8.80;6.87;;;;;;;2.78;83.06;100261.00;5034837;27;104164;-64
2022/01/19 00:50:55;;;;;;;8.70;6.70;;;;;;;2.65;82.68;100263.84;5033241;27;102642;-64
2022/01/19 00:53:25;;;;;;;9.87;8.07;;;;;;;2.50;83.71;100264.94;5033147;27;103907;-64
2022/01/19 00:55:53;;;;;;;11.87;8.97;;;;;;;2.14;84.75;100261.13;5036426;27;104291;-64
2022/01/19 00:58:21;;;;;;;9.70;8.27;;;;;;;2.23;84.60;100260.13;5054116;27;103279;-64
2022/01/19 01:00:52;;;;;;;10.80;7.50;;;;;;;2.17;85.01;100260.22;5042106;27;102760;-64
2022/01/19 01:03:20;;;;;;;8.00;6.53;;;;;;;2.30;85.98;100257.41;5055104;27;103606;-65
2022/01/19 01:05:48;;;;;;;7.77;6.27;;;;;;;2.33;85.15;100264.31;5029254;27;105815;-64
2022/01/19 01:08:17;;;;;;;9.80;7.77;;;;;;;2.29;83.52;100260.91;5046538;27;103193;-64
2022/01/19 01:10:49;;;;;;;10.77;8.23;;;;;;;2.01;85.39;100269.13;5052681;27;102683;-68
2022/01/19 01:13:22;;;;;;;10.20;7.13;;;;;;;2.02;85.70;100268.25;5030977;27;104056;-66
2022/01/19 01:16:01;;;;;;;6.47;5.67;;;;;;;2.10;85.69;100261.19;5046202;27;104300;-67
2022/01/19 01:18:32;;;;;;;9.67;7.00;;;;;;;2.17;85.22;100255.88;5031989;27;104413;-67
2022/01/19 01:21:03;;;;;;;9.03;6.97;;;;;;;2.11;84.02;100255.94;5033547;27;102780;-67
2022/01/19 01:23:35;;;;;;;7.30;5.77;;;;;;;2.10;84.80;100245.56;5042770;27;103766;-67
2022/01/19 01:26:07;;;;;;;7.77;5.93;;;;;;;2.13;85.84;100222.88;5039081;27;103917;-67
2022/01/19 01:28:35;;;;;;;7.97;6.73;;;;;;;2.19;85.17;100221.97;5043314;27;105710;-67
2022/01/19 01:31:04;;;;;;;7.20;5.00;;;;;;;2.22;85.14;100217.53;5052543;27;102609;-67
2022/01/19 01:33:33;;;;;;;9.93;7.50;;;;;;;2.22;84.36;100214.94;5032008;27;103780;-67
2022/01/19 01:36:01;;;;;;;7.30;5.90;;;;;;;2.24;84.73;100209.72;5038929;27;105618;-67
2022/01/19 01:38:30;;;;;;;6.10;5.50;;;;;;;2.22;84.40;100221.88;5032618;27;103207;-67
2022/01/19 01:41:14;;;;;;;7.47;6.70;;;;;;;2.19;83.92;100238.44;5038163;27;102805;-67
2022/01/19 01:43:51;;;;;;;8.67;6.53;;;;;;;2.15;84.46;100242.00;5035906;27;104002;-67
2022/01/19 01:46:32;;;;;;;9.20;7.10;;;;;;;2.13;84.78;100245.50;5036406;27;103623;-67
2022/01/19 01:49:03;;;;;;;7.27;6.20;;;;;;;2.09;84.56;100244.69;5030623;27;105149;-64
2022/01/19 01:54:17;;;;;;;9.03;6.70;;;;;;;2.09;85.30;100236.00;5035704;27;102851;-67
2022/01/19 01:56:47;;;;;;;7.77;6.47;;;;;;;2.07;84.77;100217.78;5032856;27;103650;-67
2022/01/19 01:59:15;;;;;;;8.37;5.93;;;;;;;2.01;85.54;100215.25;5028130;27;104154;-67
2022/01/19 02:02:02;;;;;;;8.00;7.20;;;;;;;1.97;84.98;100215.28;5045859;27;102735;-67
2022/01/19 02:04:33;;;;;;;8.07;6.23;;;;;;;1.98;85.12;100206.59;5041866;27;103992;-64
2022/01/19 02:07:30;;;;;;;6.03;5.43;;;;;;;1.90;85.16;100201.50;5032770;27;104489;-63
2022/01/19 02:10:04;;;;;;;6.03;5.43;;;;;;;1.89;84.92;100191.94;5041113;27;106031;-63
2022/01/19 02:23:48;;;;;;;7.50;5.13;;;;;;;1.40;87.49;100175.25;5037603;27;102658;-66
2022/01/19 02:26:22;;;;;;;9.60;6.80;;;;;;;1.38;86.86;100161.34;5038297;27;103854;-66
2022/01/19 02:29:02;;;;;;;10.30;6.93;;;;;;;1.30;86.56;100156.25;5034245;27;103321;-67
2022/01/19 02:40:14;;;;;;;9.10;6.47;;;;;;;0.99;89.73;100141.88;5034569;27;103333;-66
2022/01/19 02:42:54;;;;;;;7.17;5.90;;;;;;;1.23;89.46;100136.41;5035286;27;103406;-66
2022/01/19 02:50:54;;;;;;;9.17;7.10;;;;;;;0.77;89.97;100129.97;5051283;27;103657;-66
2022/01/19 02:53:27;;;;;;;7.83;6.60;;;;;;;0.45;90.92;100112.94;5035850;27;102799;-66
2022/01/19 02:55:57;;;;;;;10.97;8.00;;;;;;;0.58;92.09;100117.16;5035284;27;103229;-66
2022/01/19 02:58:25;;;;;;;7.60;6.47;;;;;;;0.91;91.38;100107.25;5040175;27;102816;-66
2022/01/19 03:09:14;;;;;;;11.80;7.03;;;;;;;0.17;92.69;100080.25;5051627;27;103664;-66
2022/01/19 03:11:42;;;;;;;10.93;8.00;;;;;;;0.29;93.10;100064.56;5044016;27;104125;-66
2022/01/19 03:14:12;;;;;;;10.33;7.90;;;;;;;-0.02;93.30;100063.09;5028791;27;103236;-66
2022/01/19 03:16:40;;;;;;;14.30;9.13;;;;;;;-0.04;95.36;100050.13;5041407;27;102687;-66
2022/01/19 03:19:09;;;;;;;12.43;10.00;;;;;;;0.08;96.21;100038.78;5034111;27;102791;-66
2022/01/19 03:21:38;;;;;;;14.60;9.63;;;;;;;-0.16;95.71;100039.84;5030233;27;105113;-66
2022/01/19 03:24:06;;;;;;;12.60;8.27;;;;;;;0.11;97.56;100038.75;5059027;27;104444;-67
2022/01/19 03:26:36;;;;;;;12.77;9.47;;;;;;;-0.24;97.18;100027.78;5043852;27;103173;-66
2022/01/19 03:29:15;;;;;;;10.50;8.93;;;;;;;0.04;97.10;100031.88;5030709;27;102809;-67
2022/01/19 03:31:44;;;;;;;12.77;9.80;;;;;;;0.04;96.73;100031.00;5032893;27;105340;-66
2022/01/19 03:34:16;;;;;;;13.77;9.63;;;;;;;0.18;95.86;100024.81;5053056;27;103307;-65
2022/01/19 03:36:48;;;;;;;11.23;8.37;;;;;;;0.18;95.20;100022.22;5038604;27;102747;-66
2022/01/19 03:39:16;;;;;;;12.13;8.97;;;;;;;0.34;94.68;100026.38;5035512;27;102929;-66
2022/01/19 03:41:46;;;;;;;11.50;9.00;;;;;;;0.17;93.54;100030.88;5059529;27;103401;-66
2022/01/19 03:44:14;;;;;;;8.87;6.87;;;;;;;0.38;94.45;100030.69;5058538;27;103188;-66
2022/01/19 03:46:54;;;;;;;13.27;8.57;;;;;;;0.35;93.28;100027.25;5043789;27;102734;-66
2022/01/19 03:49:24;;;;;;;11.00;8.03;;;;;;;0.25;93.22;100021.28;5044080;27;102839;-66
2022/01/19 03:51:58;;;;;;;9.10;6.90;;;;;;;0.49;93.92;100034.03;5052327;27;103270;-66
2022/01/19 03:54:33;;;;;;;8.33;6.80;;;;;;;0.61;92.74;100025.22;5030315;27;103360;-66
2022/01/19 03:57:02;;;;;;;10.43;8.00;;;;;;;0.52;91.80;100023.59;5050958;27;102761;-64
2022/01/19 03:59:32;;;;;;;11.17;7.97;;;;;;;0.43;91.47;100021.09;5034610;27;103762;-63
2022/01/19 04:02:01;;;;;;;13.10;8.87;;;;;;;-0.23;93.65;100011.34;5049914;27;103239;-66
2022/01/19 04:04:39;;;;;;;10.80;8.67;;;;;;;-0.27;96.17;100004.44;5032658;27;105113;-63
2022/01/19 04:07:27;;;;;;;14.90;11.13;;;;;;;-0.33;95.85;100004.47;5027484;27;102740;-63
2022/01/19 04:09:55;;;;;;;13.73;10.17;;;;;;;-0.23;95.90;100001.81;5033170;27;104741;-63
2022/01/19 04:12:42;;;;;;;14.17;10.30;;;;;;;0.04;95.41;100005.88;5041710;27;104157;-66
2022/01/19 04:15:13;;;;;;;13.27;9.57;;;;;;;0.20;94.78;100012.66;5030336;27;103253;-66
2022/01/19 04:17:47;;;;;;;9.63;7.57;;;;;;;0.33;94.04;100001.28;5050174;27;102730;-66
2022/01/19 04:20:15;;;;;;;11.30;8.57;;;;;;;0.37;93.17;100002.94;5033593;27;104599;-66
2022/01/19 04:22:43;;;;;;;8.87;7.33;;;;;;;0.45;92.29;99997.69;5031530;27;104463;-64
2022/01/19 04:25:12;;;;;;;7.57;6.40;;;;;;;0.45;91.17;99998.50;5028831;27;104224;-63
2022/01/19 04:27:43;;;;;;;9.37;8.00;;;;;;;0.47;90.62;99988.97;5033501;27;102825;-64
2022/01/19 04:30:14;;;;;;;12.50;8.57;;;;;;;0.41;90.11;99986.44;5031229;27;102742;-63
2022/01/19 04:32:52;;;;;;;10.83;8.10;;;;;;;0.21;89.81;99985.78;5031589;27;105997;-64
2022/01/19 04:35:25;;;;;;;12.17;9.20;;;;;;;0.12;90.04;99982.41;5047871;27;105931;-63
2022/01/19 04:38:29;;;;;;;8.67;7.17;;;;;;;0.21;91.23;99978.00;5032929;27;102637;-63
2022/01/19 04:54:14;;;;;;;12.50;9.40;;;;;;;0.11;91.39;99955.59;5050482;27;102776;-66
2022/01/19 05:03:50;;;;;;;12.87;9.30;;;;;;;0.25;90.42;99940.69;5057919;27;102714;-64
2022/01/19 05:06:44;;;;;;;11.07;9.83;;;;;;;0.01;90.78;99940.94;5055944;27;103239;-64
2022/01/19 05:09:27;;;;;;;12.83;10.50;;;;;;;-0.28;93.08;99930.84;5036572;27;105949;-66
2022/01/19 05:14:48;;;;;;;10.63;7.50;;;;;;;0.03;93.10;99926.19;4977928;27;102955;-66
2022/01/19 05:17:18;;;;;;;10.73;8.40;;;;;;;0.18;92.70;99923.44;5057078;27;103999;-66
2022/01/19 05:19:46;;;;;;;12.30;8.63;;;;;;;0.22;91.87;99916.47;5038228;27;105126;-67
2022/01/19 05:22:14;;;;;;;11.67;9.50;;;;;;;-0.21;90.34;99921.25;5036604;27;102875;-66
2022/01/19 05:24:53;;;;;;;12.33;9.57;;;;;;;-0.36;93.04;99919.66;5042667;27;102773;-64
2022/01/19 05:27:47;;;;;;;14.87;10.40;;;;;;;-0.31;93.42;99906.66;5051585;27;103372;-63
2022/01/19 05:30:18;;;;;;;10.93;8.90;;;;;;;-0.27;92.94;99916.13;5035885;27;103767;-64
2022/01/19 05:32:49;;;;;;;14.10;9.17;;;;;;;-0.23;92.87;99921.28;5036376;27;102913;-65
2022/01/19 05:35:18;;;;;;;14.90;10.00;;;;;;;-0.19;92.50;99915.16;5031882;27;103837;-64
2022/01/19 05:38:06;;;;;;;15.87;11.33;;;;;;;-0.92;95.32;99904.56;5055172;27;104321;-65
2022/01/19 05:40:57;;;;;;;13.80;10.53;;;;;;;-0.58;96.29;99905.16;5048577;27;103114;-63
2022/01/19 05:43:25;;;;;;;21.50;11.33;;;;;;;-0.53;95.67;99895.59;5039918;27;104035;-62
2022/01/19 05:45:53;;;;;;;14.07;11.20;;;;;;;-0.78;96.40;99889.75;5036530;27;103777;-62
2022/01/19 05:48:25;;;;;;;16.00;11.53;;;;;;;-0.91;97.24;99874.28;5037700;27;105082;-64
2022/01/19 05:50:56;;;;;;;18.17;11.80;;;;;;;-0.66;97.29;99881.00;5038118;27;103308;-64
2022/01/19 05:53:28;;;;;;;18.13;11.53;;;;;;;-0.49;96.58;99878.25;5020491;27;102771;-64
2022/01/19 05:56:04;;;;;;;16.37;11.27;;;;;;;-0.43;95.22;99878.19;5033391;27;104553;-63
2022/01/19 05:58:37;;;;;;;15.13;10.23;;;;;;;-0.32;94.87;99878.94;5035770;27;104897;-64
2022/01/19 06:01:06;;;;;;;11.33;9.53;;;;;;;-0.28;94.24;99884.09;5033149;27;105120;-64
2022/01/19 06:03:36;;;;;;;16.47;12.17;;;;;;;-0.20;94.40;99881.44;5030662;27;102765;-64
2022/01/19 06:06:26;;;;;;;12.10;10.03;;;;;;;-0.15;94.01;99879.66;5026919;27;103223;-64
2022/01/19 06:09:34;;;;;;;17.90;10.50;;;;;;;-0.17;94.32;99877.03;5019651;27;103289;-64
2022/01/19 06:12:05;;;;;;;13.87;9.30;;;;;;;-0.03;94.06;99871.72;5032754;27;103260;-64
2022/01/19 06:14:35;;;;;;;13.00;10.83;;;;;;;0.01;93.24;99868.19;5038829;27;102996;-63
2022/01/19 06:17:05;;;;;;;14.97;11.00;;;;;;;0.06;93.24;99862.97;5034825;27;103662;-64
2022/01/19 06:19:35;;;;;;;16.70;12.00;;;;;;;0.10;93.16;99869.81;5019684;27;105287;-63
2022/01/19 06:22:06;;;;;;;15.33;11.53;;;;;;;0.05;92.14;99867.28;5022652;27;105335;-63
2022/01/19 06:24:34;;;;;;;19.50;13.80;;;;;;;-0.18;91.64;99874.47;5018910;27;102755;-63
2022/01/19 06:27:02;;;;;;;16.30;11.07;;;;;;;-0.16;93.33;99870.97;5031168;27;103279;-63
2022/01/19 06:29:31;;;;;;;15.70;12.23;;;;;;;-0.20;93.30;99871.03;5026357;27;106443;-64
2022/01/19 06:32:00;;;;;;;19.13;13.93;;;;;;;-0.36;93.04;99880.72;5013032;27;105388;-63
2022/01/19 06:34:28;;;;;;;20.83;14.60;;;;;;;-0.52;93.06;99878.28;5030948;27;103287;-63
2022/01/19 06:37:16;;;;;;;18.77;12.87;;;;;;;-0.60;94.28;99897.41;5042359;27;104040;-64
2022/01/19 06:39:53;;;;;;;19.73;14.00;;;;;;;-0.69;94.46;99886.22;5029801;27;104321;-64
2022/01/19 06:42:22;;;;;;;16.33;13.13;;;;;;;-0.83;95.89;99877.69;5034498;27;105142;-63
2022/01/19 06:44:50;;;;;;;18.73;13.33;;;;;;;-0.75;95.35;99887.13;5035960;27;103005;-62
2022/01/19 06:47:18;;;;;;;14.80;11.43;;;;;;;-0.64;95.09;99874.06;5029464;27;102738;-64
2022/01/19 06:49:46;;;;;;;21.00;13.23;;;;;;;-0.60;94.53;99871.44;5051686;27;104502;-64
2022/01/19 06:52:18;;;;;;;14.40;11.67;;;;;;;-0.65;94.15;99870.63;5034512;27;103269;-63
2022/01/19 06:54:46;;;;;;;15.23;11.73;;;;;;;-0.55;93.99;99865.31;5027442;27;102838;-63
2022/01/19 06:57:14;;;;;;;15.10;12.40;;;;;;;-0.92;94.92;99865.66;5032130;27;104076;-64
2022/01/19 07:00:21;;;;;;;18.10;14.33;;;;;;;-1.19;97.76;99858.94;5028447;27;103221;-62
2022/01/19 07:03:07;;;;;;;17.57;13.47;;;;;;;-0.99;98.09;99864.00;5052469;27;103954;-64
2022/01/19 07:05:47;;;;;;;21.70;15.30;;;;;;;-0.89;98.37;99870.81;5027917;27;102867;-63
2022/01/19 07:08:35;;;;;;;21.73;14.83;;;;;;;-0.76;97.94;99869.81;5032905;27;103080;-63
2022/01/19 07:11:03;;;;;;;18.47;14.50;;;;;;;-0.68;96.49;99859.41;5029587;27;103321;-63
2022/01/19 07:13:33;;;;;;;26.50;17.27;;;;;;;-0.64;96.08;99861.94;5043474;27;106267;-62
2022/01/19 07:16:01;;;;;;;23.27;15.60;;;;;;;-0.61;95.76;99853.25;5050198;27;102649;-62
2022/01/19 07:18:29;;;;;;;24.73;15.83;;;;;;;-0.89;95.77;99851.78;5038427;27;103899;-63
2022/01/19 07:20:59;;;;;;;23.07;15.53;;;;;;;-0.90;97.35;99850.91;5040161;27;105798;-65
2022/01/19 07:23:51;;;;;;;21.70;13.53;;;;;;;-0.54;97.42;99854.94;5035019;27;105070;-65
2022/01/19 07:26:21;;;;;;;18.77;13.67;;;;;;;-0.56;95.35;99861.03;5035969;27;102687;-63
2022/01/19 07:28:49;;;;;;;20.47;14.50;;;;;;;-0.53;95.12;99856.66;5038363;27;102790;-64
2022/01/19 07:31:18;;;;;;;23.33;15.50;;;;;;;-0.53;94.84;99848.03;5036004;27;105721;-63
2022/01/19 07:33:47;;;;;;;23.03;14.80;;;;;;;-0.65;95.26;99852.47;5042350;27;105505;-64
2022/01/19 07:36:17;;;;;;;20.33;14.53;;;;;;;-0.66;95.69;99845.53;5039764;27;103040;-63
2022/01/19 07:38:46;;;;;;;20.47;13.70;;;;;;;-0.50;95.65;99851.41;5040271;27;103073;-63
2022/01/19 07:41:15;;;;;;;16.30;12.00;;;;;;;-0.40;95.35;99847.00;5035266;27;104100;-63
2022/01/19 07:43:48;;;;;;;18.20;14.10;;;;;;;-0.32;94.33;99845.19;5032509;27;103177;-64
2022/01/19 07:46:25;;;;;;;19.23;13.93;;;;;;;-0.15;94.44;99838.06;5047920;27;103129;-63
2022/01/19 07:49:15;;;;;;;16.87;11.93;;;;;;;0.02;93.72;99830.94;5056441;27;102620;-63
2022/01/19 07:51:57;;;;;;;15.93;12.00;;;;;;;0.23;93.41;99828.06;5034270;27;104177;-62
2022/01/19 07:54:30;;;;;;;16.67;11.70;;;;;;;0.40;92.95;99833.91;5035264;27;105429;-63
2022/01/19 07:57:32;;;;;;;17.83;12.53;;;;;;;0.40;91.96;99827.84;5037445;27;102758;-62
2022/01/19 08:00:19;;;;;;;19.77;14.37;;;;;;;0.59;92.21;99824.09;5041800;27;104344;-63
2022/01/19 08:02:49;;;;;;;21.53;14.77;;;;;;;0.48;91.25;99829.44;5051652;27;103228;-62
2022/01/19 08:05:39;;;;;;;17.13;12.17;;;;;;;0.65;92.70;99820.56;5023115;27;104235;-63
2022/01/19 08:08:08;;;;;;;22.13;14.50;;;;;;;1.02;91.63;99808.69;5031698;27;102818;-63
2022/01/19 08:10:36;;;;;;;19.27;14.80;;;;;;;1.09;90.67;99816.38;5032477;27;102645;-64
2022/01/19 08:13:05;;;;;;;18.77;14.10;;;;;;;1.28;90.04;99811.72;5044670;27;103250;-62
2022/01/19 08:15:33;;;;;;;15.97;11.73;;;;;;;1.58;88.71;99816.34;5029786;27;103426;-62
2022/01/19 08:18:05;;;;;;;14.77;11.17;;;;;;;1.97;88.01;99812.13;5040959;27;102668;-62
2022/01/19 08:20:33;;;;;;;14.10;10.27;;;;;;;2.30;86.37;99802.75;5061333;27;102606;-64
2022/01/19 08:23:03;;;;;;;14.67;9.83;;;;;;;2.55;85.01;99803.94;5049718;27;104167;-64
2022/01/19 08:25:42;;;;;;;12.47;9.77;;;;;;;2.90;84.20;99806.56;5028851;27;103177;-63
2022/01/19 08:28:11;;;;;;;17.60;12.07;;;;;;;3.37;81.66;99807.13;5035649;27;102608;-63
2022/01/19 08:30:40;;;;;;;14.87;10.27;;;;;;;3.42;81.75;99795.66;5026839;27;102835;-62
2022/01/19 08:33:09;;;;;;;16.33;11.23;;;;;;;3.41;81.55;99793.94;5029870;27;104264;-65
2022/01/19 08:35:47;;;;;;;15.07;9.40;;;;;;;3.56;81.55;99797.06;5029067;27;103779;-64
2022/01/19 08:38:34;;;;;;;14.33;10.67;;;;;;;3.65;80.64;99800.25;5048931;27;103011;-62
2022/01/19 08:41:34;;;;;;;16.53;10.37;;;;;;;3.26;81.25;99798.69;5036548;27;102880;-62
2022/01/19 08:44:04;;;;;;;13.13;11.40;;;;;;;3.44;81.15;99803.47;5032973;27;105078;-63
2022/01/19 08:46:33;;;;;;;16.87;11.23;;;;;;;3.71;80.97;99801.84;5031772;27;105028;-64
2022/01/19 08:49:21;;;;;;;12.97;10.57;;;;;;;3.77;80.87;99810.41;5046546;27;102650;-64
2022/01/19 08:52:08;;;;;;;16.97;11.70;;;;;;;4.19;78.56;99805.72;5045470;27;102659;-64
2022/01/19 08:54:45;;;;;;;14.30;11.00;;;;;;;3.78;80.05;99804.28;5024681;27;103983;-64
2022/01/19 08:57:16;;;;;;;13.37;11.93;;;;;;;3.98;78.29;99801.97;5028694;27;103197;-62
2022/01/19 08:59:48;;;;;;;16.50;11.97;;;;;;;4.22;78.46;99783.81;5026709;27;102730;-63
2022/01/19 09:02:16;;;;;;;12.87;10.57;;;;;;;4.52;77.38;99790.78;5051224;27;104106;-63
2022/01/19 09:04:47;;;;;;;18.13;11.87;;;;;;;4.55;75.90;99798.50;5041372;27;102762;-64
2022/01/19 09:07:15;;;;;;;11.53;10.40;;;;;;;4.79;77.52;99792.53;5026004;27;103333;-65
2022/01/19 09:09:43;;;;;;;14.20;12.07;;;;;;;4.91;76.20;99789.50;5045036;27;103010;-64
2022/01/19 09:12:12;;;;;;;15.23;12.87;;;;;;;4.93;74.55;99792.06;5048111;27;103934;-65
2022/01/19 09:14:40;;;;;;;14.97;13.27;;;;;;;4.58;75.54;99793.19;5047310;27;103324;-65
2022/01/19 09:17:10;;;;;;;17.53;13.37;;;;;;;4.97;74.49;99794.53;5054608;27;103272;-65
2022/01/19 09:19:39;;;;;;;16.03;13.33;;;;;;;4.89;75.04;99788.69;5057165;27;102769;-64
2022/01/19 09:22:09;;;;;;;13.93;12.20;;;;;;;4.88;74.53;99789.63;5052518;27;103864;-65
2022/01/19 09:24:39;;;;;;;13.37;10.70;;;;;;;5.10;74.97;99798.50;5041731;27;102988;-64
2022/01/19 09:27:09;;;;;;;13.20;11.50;;;;;;;5.35;72.83;99792.41;5042294;27;103179;-65
2022/01/19 09:29:42;;;;;;;15.03;12.10;;;;;;;5.24;73.17;99795.41;5040836;27;102593;-64
2022/01/19 09:32:12;;;;;;;13.90;11.30;;;;;;;5.43;73.22;99798.25;5027843;27;102954;-64
2022/01/19 09:34:43;;;;;;;13.47;11.77;;;;;;;5.21;74.09;99785.03;5028450;27;104344;-64
2022/01/19 09:37:11;;;;;;;14.63;12.60;;;;;;;5.40;73.02;99785.25;5024382;27;103336;-62
2022/01/19 09:39:40;;;;;;;12.93;11.60;;;;;;;5.60;72.30;99777.56;5036545;27;102944;-62
2022/01/19 09:42:08;;;;;;;13.13;11.63;;;;;;;5.56;72.37;99782.03;5038198;27;102653;-62
2022/01/19 09:44:37;;;;;;;12.93;11.13;;;;;;;5.52;71.99;99785.69;5038055;27;103223;-62
2022/01/19 09:47:06;;;;;;;14.43;11.80;;;;;;;5.37;71.40;99775.72;5035411;27;103047;-63
2022/01/19 09:49:35;;;;;;;12.37;11.07;;;;;;;5.50;72.35;99773.56;5038706;27;102675;-62
2022/01/19 09:52:05;;;;;;;12.70;11.00;;;;;;;5.52;71.86;99774.34;5038363;27;104184;-62
2022/01/19 09:54:33;;;;;;;14.20;11.33;;;;;;;5.79;71.96;99770.75;5039725;27;103101;-63
2022/01/19 09:57:02;;;;;;;16.27;12.23;;;;;;;5.70;70.28;99763.19;5045164;27;102966;-62
2022/01/19 09:59:35;;;;;;;10.67;9.67;;;;;;;5.96;70.62;99755.28;5041071;27;102538;-63
2022/01/19 10:02:05;;;;;;;12.87;10.83;;;;;;;6.17;70.11;99751.00;5054466;27;103789;-64
2022/01/19 10:04:37;;;;;;;14.53;10.73;;;;;;;6.26;70.00;99746.25;5036292;27;104163;-64
2022/01/19 10:07:18;;;;;;;15.10;12.23;;;;;;;6.07;69.28;99741.75;5032273;27;103195;-63
2022/01/19 10:09:54;;;;;;;17.47;12.20;;;;;;;6.07;69.63;99742.63;5031671;27;102778;-62
2022/01/19 10:18:10;;;;;;;10.37;9.30;;;;;;;6.45;68.34;99712.28;5042066;27;102979;-63
2022/01/19 10:20:41;;;;;;;10.67;9.50;;;;;;;6.52;68.34;99711.09;5041955;27;103089;-63
2022/01/19 10:23:33;;;;;;;10.83;9.07;;;;;;;6.34;68.90;99701.34;5029162;27;103726;-65
2022/01/19 10:26:01;;;;;;;12.93;10.90;;;;;;;6.62;67.98;99690.59;5049539;27;103685;-63
2022/01/19 10:28:29;;;;;;;13.17;11.53;;;;;;;6.50;68.58;99693.69;5050179;27;103238;-63
2022/01/19 10:31:01;;;;;;;14.73;12.60;;;;;;;6.46;68.50;99686.88;5051962;27;102679;-63
2022/01/19 10:33:29;;;;;;;16.57;12.03;;;;;;;6.64;67.38;99687.00;5037889;27;104482;-63
2022/01/19 10:36:02;;;;;;;12.73;10.20;;;;;;;6.98;67.39;99683.81;5046522;27;103194;-63
2022/01/19 10:38:30;;;;;;;16.23;11.83;;;;;;;6.84;68.00;99678.28;5056697;27;103328;-63
2022/01/19 10:41:08;;;;;;;15.03;11.63;;;;;;;6.33;68.73;99670.75;5046184;27;102596;-66
2022/01/19 10:43:39;;;;;;;13.37;12.07;;;;;;;6.44;67.19;99665.94;5049235;27;103972;-65
2022/01/19 10:46:28;;;;;;;13.83;12.30;;;;;;;5.86;69.23;99654.25;5041739;27;104245;-65
2022/01/19 10:49:03;;;;;;;13.93;11.83;;;;;;;6.24;68.85;99660.63;5053868;27;103196;-65
2022/01/19 10:51:37;;;;;;;12.07;10.80;;;;;;;6.91;68.90;99653.44;5050614;27;102670;-65
2022/01/19 10:54:14;;;;;;;15.87;13.03;;;;;;;7.19;65.83;99651.34;5046998;27;103270;-65
2022/01/19 10:56:43;;;;;;;16.87;12.67;;;;;;;5.99;67.42;99654.63;5040419;27;104223;-66
2022/01/19 10:59:15;;;;;;;14.77;13.07;;;;;;;6.82;68.13;99648.59;5051898;27;103204;-66
2022/01/19 11:01:45;;;;;;;14.03;12.50;;;;;;;6.60;66.60;99653.88;5050626;27;102661;-66
2022/01/19 11:04:27;;;;;;;14.23;12.57;;;;;;;6.55;68.40;99649.72;5030322;27;102794;-67
2022/01/19 11:07:01;;;;;;;13.20;11.70;;;;;;;6.80;66.93;99646.03;5047345;27;104142;-66
2022/01/19 11:09:30;;;;;;;16.80;12.20;;;;;;;6.26;67.57;99651.75;5056484;27;103280;-64
2022/01/19 11:12:04;;;;;;;13.73;12.03;;;;;;;5.99;69.08;99649.38;5048804;27;102558;-65
2022/01/19 11:14:35;;;;;;;13.10;11.80;;;;;;;5.72;69.76;99646.03;5049173;27;103464;-65
2022/01/19 11:17:23;;;;;;;14.37;12.90;;;;;;;5.88;69.03;99636.69;5045147;27;103292;-65
2022/01/19 11:19:52;;;;;;;13.03;11.60;;;;;;;6.17;68.24;99627.69;5050357;27;103223;-65
2022/01/19 11:22:29;;;;;;;14.77;13.27;;;;;;;6.74;66.95;99629.66;5028111;27;102801;-65
2022/01/19 11:25:05;;;;;;;13.27;11.73;;;;;;;6.86;66.00;99626.53;5048093;27;103624;-63
2022/01/19 11:27:38;;;;;;;13.10;11.70;;;;;;;5.94;67.90;99628.56;5046911;27;103597;-63
2022/01/19 11:30:13;;;;;;;13.13;11.83;;;;;;;6.66;67.95;99618.63;5052294;27;103161;-64
2022/01/19 11:32:43;;;;;;;14.43;11.80;;;;;;;6.19;67.02;99616.19;5029584;27;102706;-63
2022/01/19 11:35:32;;;;;;;14.67;11.33;;;;;;;7.51;65.69;99598.19;5046948;27;103038;-63
2022/01/19 11:38:22;;;;;;;12.80;11.47;;;;;;;6.50;65.62;99604.44;5044951;27;103274;-64
2022/01/19 11:40:50;;;;;;;12.97;11.40;;;;;;;5.87;68.06;99603.50;5043952;27;103213;-64
2022/01/19 11:43:21;;;;;;;13.67;12.13;;;;;;;6.51;66.93;99614.03;5023844;27;102663;-63
2022/01/19 11:45:49;;;;;;;13.47;11.50;;;;;;;7.36;65.50;99603.28;5054978;27;103749;-63
2022/01/19 11:48:19;;;;;;;12.80;10.47;;;;;;;7.42;64.62;99605.63;5054041;27;104210;-64
2022/01/19 11:50:50;;;;;;;12.03;10.63;;;;;;;6.81;65.34;99607.50;5043532;27;103208;-65
2022/01/19 11:53:20;;;;;;;12.40;9.63;;;;;;;7.56;65.99;99601.47;5028136;27;102632;-65
2022/01/19 11:56:06;;;;;;;14.37;10.60;;;;;;;6.52;65.73;99602.59;5048157;27;103756;-64
2022/01/19 11:58:35;;;;;;;10.23;9.23;;;;;;;6.41;65.96;99601.28;5048192;27;103230;-63
2022/01/19 12:01:20;;;;;;;10.80;9.40;;;;;;;6.85;65.77;99598.53;5048285;27;103424;-64
2022/01/19 12:03:48;;;;;;;12.27;8.57;;;;;;;7.55;65.14;99583.97;5041557;27;102643;-64
2022/01/19 12:06:36;;;;;;;10.13;8.97;;;;;;;7.65;63.85;99580.91;5052016;27;103910;-63
2022/01/19 12:09:09;;;;;;;12.53;9.50;;;;;;;6.62;66.55;99582.94;5049867;27;104391;-64
2022/01/19 12:11:42;;;;;;;12.43;9.80;;;;;;;7.48;64.67;99569.41;5039725;27;104215;-63
2022/01/19 12:14:15;;;;;;;10.80;9.23;;;;;;;6.60;65.73;99566.38;5047798;27;102652;-64
2022/01/19 12:16:58;;;;;;;10.43;9.17;;;;;;;6.48;67.22;99574.78;5046862;27;103611;-64
2022/01/19 12:19:28;;;;;;;10.70;8.93;;;;;;;6.17;68.90;99583.06;5046682;27;103684;-65
2022/01/19 12:22:05;;;;;;;11.03;9.20;;;;;;;7.13;66.39;99575.38;5035989;27;104247;-66
2022/01/19 12:24:41;;;;;;;11.90;8.07;;;;;;;7.15;65.44;99578.84;5059830;27;102594;-66
2022/01/19 12:27:26;;;;;;;12.73;9.30;;;;;;;7.09;64.86;99573.84;5056206;27;104228;-65
2022/01/19 12:30:06;;;;;;;10.50;8.33;;;;;;;7.60;64.56;99570.63;5058185;27;103272;-65
2022/01/19 12:32:47;;;;;;;10.87;8.80;;;;;;;6.84;67.06;99565.31;5037298;27;104219;-65
2022/01/19 12:35:21;;;;;;;9.93;6.97;;;;;;;7.85;65.42;99565.06;5063274;27;102671;-65
2022/01/19 12:37:52;;;;;;;10.30;8.10;;;;;;;7.11;65.69;99556.22;5051386;27;104599;-66
2022/01/19 12:40:47;;;;;;;12.53;8.20;;;;;;;8.02;63.13;99544.91;5050780;27;103237;-65
2022/01/19 12:43:30;;;;;;;10.40;8.53;;;;;;;7.82;63.21;99538.88;5028499;27;104159;-65
2022/01/19 12:46:00;;;;;;;7.37;6.67;;;;;;;8.63;62.66;99526.91;5050594;27;102977;-65
2022/01/19 12:48:48;;;;;;;9.27;7.83;;;;;;;8.66;62.42;99533.81;5031491;27;104122;-65
2022/01/19 12:51:39;;;;;;;9.97;7.47;;;;;;;8.30;61.83;99523.38;5052968;27;103724;-66
2022/01/19 12:54:09;;;;;;;10.20;8.37;;;;;;;7.76;63.51;99528.66;5044248;27;103258;-65